createdAt,value
2022-12-18T00:00:06.739Z,37.75
2022-12-18T00:02:33.665Z,31.23
2022-12-18T00:05:00.411Z,37.00
2022-12-18T00:07:28.334Z,35.57
2022-12-18T00:09:56.808Z,34.88
2022-12-18T00:12:23.392Z,35.72
2022-12-18T00:14:50.019Z,34.92
2022-12-18T00:17:16.772Z,34.97
2022-12-18T00:19:43.426Z,38.70
2022-12-18T00:22:10.048Z,39.45
2022-12-18T00:24:36.639Z,36.17
2022-12-18T00:27:03.422Z,38.50
2022-12-18T00:29:30.477Z,40.38
2022-12-18T00:31:57.179Z,41.23
2022-12-18T00:34:23.752Z,37.05
2022-12-18T00:36:50.528Z,37.97
2022-12-18T00:39:17.134Z,37.72
2022-12-18T00:42:02.439Z,43.03
2022-12-18T00:44:29.040Z,37.50
2022-12-18T00:46:55.755Z,39.38
2022-12-18T00:49:22.392Z,37.63
2022-12-18T00:51:49.742Z,46.28
2022-12-18T00:54:18.653Z,38.95
2022-12-18T00:56:48.977Z,35.53
2022-12-18T00:59:17.445Z,45.42
2022-12-18T01:01:44.230Z,36.90
2022-12-18T01:04:11.078Z,38.95
2022-12-18T01:06:37.836Z,43.58
2022-12-18T01:09:04.569Z,38.90
2022-12-18T01:11:31.917Z,35.35
2022-12-18T01:14:04.464Z,40.30
2022-12-18T01:16:31.052Z,39.28
2022-12-18T01:18:57.735Z,34.10
2022-12-18T01:21:25.157Z,39.27
2022-12-18T01:23:53.388Z,34.40
2022-12-18T01:26:21.491Z,43.58
2022-12-18T01:28:48.480Z,38.58
2022-12-18T01:31:32.617Z,45.80
2022-12-18T01:34:02.270Z,39.17
2022-12-18T01:36:31.698Z,41.35
2022-12-18T01:39:00.597Z,39.70
2022-12-18T01:41:47.751Z,37.85
2022-12-18T01:44:51.894Z,41.97
2022-12-18T01:47:33.114Z,45.50
2022-12-18T01:50:05.879Z,39.13
2022-12-18T01:52:34.376Z,41.03
2022-12-18T01:55:02.737Z,36.40
2022-12-18T01:57:29.837Z,37.15
2022-12-18T02:00:00.812Z,38.70
2022-12-18T02:02:30.032Z,43.35
2022-12-18T02:04:56.758Z,52.70
2022-12-18T02:07:43.716Z,43.50
2022-12-18T02:10:30.013Z,39.17
2022-12-18T02:13:10.429Z,39.07
2022-12-18T02:15:47.083Z,37.33
2022-12-18T02:18:22.278Z,33.72
2022-12-18T02:20:54.877Z,40.78
2022-12-18T02:23:28.161Z,32.40
2022-12-18T02:26:07.054Z,32.47
2022-12-18T02:28:40.003Z,37.60
2022-12-18T02:31:12.206Z,35.97
2022-12-18T02:33:41.768Z,37.80
2022-12-18T02:36:11.864Z,40.30
2022-12-18T02:38:39.363Z,37.40
2022-12-18T02:41:07.248Z,39.38
2022-12-18T02:43:34.178Z,37.47
2022-12-18T02:46:02.009Z,35.75
2022-12-18T02:48:34.731Z,34.47
2022-12-18T02:51:17.055Z,32.90
2022-12-18T02:53:53.604Z,35.08
2022-12-18T02:56:27.497Z,44.03
2022-12-18T02:59:03.495Z,36.78
2022-12-18T03:02:02.978Z,34.10
2022-12-18T03:04:39.655Z,40.33
2022-12-18T03:07:12.514Z,32.40
2022-12-18T03:09:43.949Z,33.30
2022-12-18T03:12:24.701Z,40.22
2022-12-18T03:14:57.932Z,31.40
2022-12-18T03:17:27.785Z,33.60
2022-12-18T03:19:57.496Z,34.25
2022-12-18T03:22:28.837Z,32.00
2022-12-18T03:24:58.379Z,31.55
2022-12-18T03:27:28.097Z,33.25
2022-12-18T03:30:08.391Z,41.53
2022-12-18T03:32:43.403Z,34.25
2022-12-18T03:35:13.089Z,38.95
2022-12-18T03:37:40.006Z,31.33
2022-12-18T03:40:07.145Z,33.80
2022-12-18T03:42:54.728Z,31.90
2022-12-18T03:45:42.828Z,32.90
2022-12-18T03:48:18.470Z,30.13
2022-12-18T03:50:49.836Z,33.75
2022-12-18T03:53:27.400Z,32.42
2022-12-18T03:55:54.882Z,30.93
2022-12-18T03:58:25.725Z,33.47
2022-12-18T04:00:57.069Z,28.35
2022-12-18T04:03:26.620Z,27.67
2022-12-18T04:05:55.606Z,29.27
2022-12-18T04:08:23.147Z,31.33
2022-12-18T04:10:49.744Z,29.67
2022-12-18T04:13:24.842Z,31.27
2022-12-18T04:15:51.986Z,23.50
2022-12-18T04:18:18.597Z,28.58
2022-12-18T04:20:45.167Z,27.03
2022-12-18T04:23:12.053Z,28.67
2022-12-18T04:25:38.597Z,23.20
2022-12-18T04:28:05.149Z,25.52
2022-12-18T04:30:31.656Z,24.27
2022-12-18T04:32:58.238Z,22.47
2022-12-18T04:35:24.821Z,25.08
2022-12-18T04:37:51.367Z,23.77
2022-12-18T04:40:18.100Z,23.48
2022-12-18T04:42:44.743Z,26.48
2022-12-18T04:45:11.643Z,18.30
2022-12-18T04:47:38.258Z,24.95
2022-12-18T04:50:05.313Z,22.02
2022-12-18T04:52:31.843Z,23.70
2022-12-18T04:54:58.482Z,21.65
2022-12-18T04:57:26.526Z,22.70
2022-12-18T04:59:53.078Z,23.15
2022-12-18T05:02:19.706Z,20.58
2022-12-18T05:04:46.357Z,19.70
2022-12-18T05:07:12.847Z,23.50
2022-12-18T05:09:39.466Z,24.60
2022-12-18T05:12:06.226Z,17.63
2022-12-18T05:14:33.786Z,19.80
2022-12-18T05:17:01.218Z,16.45
2022-12-18T05:19:27.969Z,20.85
2022-12-18T05:21:54.561Z,20.37
2022-12-18T05:24:21.131Z,20.45
2022-12-18T05:26:47.646Z,19.55
2022-12-18T05:29:14.266Z,22.73
2022-12-18T05:31:41.120Z,18.92
2022-12-18T05:34:09.531Z,16.00
2022-12-18T05:36:37.276Z,18.75
2022-12-18T05:39:04.206Z,18.55
2022-12-18T05:41:31.155Z,16.33
2022-12-18T05:43:57.801Z,17.50
2022-12-18T05:46:25.285Z,19.20
2022-12-18T05:48:52.548Z,14.50
2022-12-18T05:51:23.110Z,17.10
2022-12-18T05:53:49.931Z,18.92
2022-12-18T05:56:21.927Z,15.98
2022-12-18T05:58:48.745Z,15.00
2022-12-18T06:01:19.885Z,16.08
2022-12-18T06:03:47.307Z,17.20
2022-12-18T06:06:18.689Z,14.85
2022-12-18T06:08:46.655Z,12.38
2022-12-18T06:11:14.297Z,17.33
2022-12-18T06:13:41.236Z,17.10
2022-12-18T06:16:09.201Z,17.48
2022-12-18T06:18:41.666Z,16.65
2022-12-18T06:21:08.360Z,15.70
2022-12-18T06:23:35.706Z,15.27
2022-12-18T06:26:08.361Z,21.50
2022-12-18T06:28:34.965Z,17.17
2022-12-18T06:31:01.612Z,18.58
2022-12-18T06:33:29.131Z,18.00
2022-12-18T06:36:01.708Z,14.63
2022-12-18T06:38:28.378Z,16.27
2022-12-18T06:40:55.047Z,15.32
2022-12-18T06:43:21.622Z,15.07
2022-12-18T06:45:53.558Z,13.93
2022-12-18T06:48:20.908Z,15.00
2022-12-18T06:50:47.766Z,17.90
2022-12-18T06:53:14.516Z,14.32
2022-12-18T06:55:41.647Z,16.45
2022-12-18T06:58:08.684Z,20.17
2022-12-18T07:00:37.362Z,17.53
2022-12-18T07:03:03.994Z,15.07
2022-12-18T07:05:30.595Z,18.30
2022-12-18T07:07:57.139Z,10.93
2022-12-18T07:10:23.681Z,14.30
2022-12-18T07:12:50.246Z,15.23
2022-12-18T07:15:16.797Z,16.20
2022-12-18T07:17:43.315Z,13.45
2022-12-18T07:20:10.703Z,14.20
2022-12-18T07:22:37.206Z,15.10
2022-12-18T07:25:03.910Z,15.00
2022-12-18T07:27:30.457Z,14.88
2022-12-18T07:29:58.188Z,19.10
2022-12-18T07:32:24.703Z,14.73
2022-12-18T07:34:54.327Z,18.88
2022-12-18T07:37:21.566Z,17.07
2022-12-18T07:39:48.096Z,15.40
2022-12-18T07:42:31.567Z,18.52
2022-12-18T07:44:58.939Z,12.85
2022-12-18T07:47:25.577Z,13.32
2022-12-18T07:49:52.415Z,13.60
2022-12-18T07:52:24.331Z,14.90
2022-12-18T07:54:52.597Z,14.07
2022-12-18T07:57:41.830Z,15.38
2022-12-18T08:00:06.248Z,13.95
2022-12-18T08:02:33.046Z,18.80
2022-12-18T08:04:59.775Z,20.45
2022-12-18T08:07:37.115Z,14.95
2022-12-18T08:10:07.491Z,12.63
2022-12-18T08:12:42.292Z,16.92
2022-12-18T08:15:10.027Z,13.90
2022-12-18T08:17:36.500Z,15.80
2022-12-18T08:20:03.134Z,15.50
2022-12-18T08:22:30.493Z,13.90
2022-12-18T08:24:56.988Z,14.27
2022-12-18T08:27:31.216Z,14.97
2022-12-18T08:29:58.613Z,18.17
2022-12-18T08:32:27.799Z,13.88
2022-12-18T08:34:54.510Z,15.65
2022-12-18T08:37:21.087Z,12.50
2022-12-18T08:39:47.678Z,14.13
2022-12-18T08:42:32.997Z,15.55
2022-12-18T08:44:59.525Z,13.07
2022-12-18T08:47:27.949Z,11.27
2022-12-18T08:49:55.784Z,14.10
2022-12-18T08:52:23.238Z,12.93
2022-12-18T08:54:49.773Z,11.00
2022-12-18T08:57:17.080Z,11.40
2022-12-18T08:59:43.791Z,14.02
2022-12-18T09:02:12.449Z,16.77
2022-12-18T09:04:40.761Z,15.13
2022-12-18T09:07:08.250Z,14.30
2022-12-18T09:09:34.953Z,15.95
2022-12-18T09:12:01.677Z,13.07
2022-12-18T09:14:28.237Z,13.73
2022-12-18T09:16:54.868Z,12.83
2022-12-18T09:19:21.741Z,15.05
2022-12-18T09:21:49.372Z,14.30
2022-12-18T09:24:16.968Z,12.95
2022-12-18T09:26:47.038Z,13.25
2022-12-18T09:29:15.514Z,12.00
2022-12-18T09:31:42.920Z,15.32
2022-12-18T09:34:09.491Z,16.83
2022-12-18T09:36:36.154Z,13.18
2022-12-18T09:39:07.867Z,13.23
2022-12-18T09:41:41.953Z,13.30
2022-12-18T09:44:24.277Z,12.70
2022-12-18T09:46:57.976Z,14.93
2022-12-18T09:49:27.586Z,13.10
2022-12-18T09:52:02.480Z,16.27
2022-12-18T09:54:39.306Z,17.70
2022-12-18T09:57:06.383Z,15.77
2022-12-18T09:59:41.355Z,18.70
2022-12-18T10:02:24.062Z,13.98
2022-12-18T10:05:09.349Z,19.75
2022-12-18T10:07:57.132Z,15.07
2022-12-18T10:10:30.681Z,13.75
2022-12-18T10:13:10.752Z,14.60
2022-12-18T10:15:59.451Z,16.90
2022-12-18T10:18:39.915Z,15.57
2022-12-18T10:21:20.258Z,14.27
2022-12-18T10:24:02.632Z,16.13
2022-12-18T10:26:29.239Z,14.48
2022-12-18T10:29:02.157Z,13.82
2022-12-18T10:31:32.105Z,11.65
2022-12-18T10:33:58.726Z,12.83
2022-12-18T10:36:25.659Z,10.75
2022-12-18T10:38:52.492Z,13.13
2022-12-18T10:41:19.902Z,12.73
2022-12-18T10:43:48.810Z,12.50
2022-12-18T10:46:18.984Z,13.60
2022-12-18T10:48:48.622Z,13.57
2022-12-18T10:51:31.410Z,11.90
2022-12-18T10:54:01.703Z,11.82
2022-12-18T10:56:32.269Z,11.18
2022-12-18T10:59:01.978Z,12.43
2022-12-18T11:01:32.132Z,9.60
2022-12-18T11:04:02.044Z,13.60
2022-12-18T11:06:30.343Z,15.43
2022-12-18T11:09:13.169Z,13.18
2022-12-18T11:11:41.902Z,14.63
2022-12-18T11:14:19.663Z,12.32
2022-12-18T11:17:23.722Z,14.25
2022-12-18T11:19:39.135Z,10.95
2022-12-18T11:22:22.119Z,13.00
2022-12-18T11:25:30.256Z,12.53
2022-12-18T11:27:52.770Z,11.23
2022-12-18T11:30:48.186Z,12.05
2022-12-18T11:33:21.917Z,10.45
2022-12-18T11:36:04.797Z,11.93
2022-12-18T11:38:36.141Z,14.20
2022-12-18T11:41:48.162Z,12.95
2022-12-18T11:44:21.248Z,10.45
2022-12-18T11:46:53.033Z,10.95
2022-12-18T11:49:34.241Z,11.48
2022-12-18T11:52:16.637Z,11.73
2022-12-18T11:54:43.397Z,11.82
2022-12-18T11:57:22.665Z,13.57
2022-12-18T12:00:03.752Z,11.65
2022-12-18T12:02:58.175Z,12.40
2022-12-18T12:05:35.511Z,11.33
2022-12-18T12:08:14.827Z,13.27
2022-12-18T12:11:00.459Z,11.40
2022-12-18T12:13:42.129Z,9.65
2022-12-18T12:16:21.446Z,13.65
2022-12-18T12:19:01.064Z,11.63
2022-12-18T12:21:41.548Z,12.63
2022-12-18T12:24:48.194Z,13.52
2022-12-18T12:28:02.002Z,10.77
2022-12-18T12:31:01.169Z,14.10
2022-12-18T12:33:54.808Z,12.90
2022-12-18T12:47:17.210Z,12.63
2022-12-18T13:06:59.192Z,14.25
2022-12-18T14:36:38.782Z,11.50
2022-12-18T15:39:21.472Z,15.63
2022-12-18T15:44:56.789Z,14.40
2022-12-18T15:47:23.540Z,13.20
2022-12-18T15:49:50.232Z,13.98
2022-12-18T15:52:26.959Z,15.77
2022-12-18T15:55:27.947Z,13.98
2022-12-18T16:22:32.825Z,16.15
2022-12-18T16:31:38.506Z,14.95
2022-12-18T16:48:49.364Z,15.98
2022-12-18T16:54:43.376Z,16.95
2022-12-18T16:58:06.449Z,18.70
2022-12-18T17:07:26.670Z,18.45
2022-12-18T17:11:10.782Z,15.02
2022-12-18T17:14:26.299Z,15.77
2022-12-18T17:20:30.112Z,15.90
2022-12-18T18:04:31.844Z,19.77
2022-12-18T18:06:58.676Z,18.30
2022-12-18T18:15:13.907Z,20.58
2022-12-18T18:17:40.715Z,20.38
2022-12-18T18:20:10.990Z,19.58
2022-12-18T18:31:05.909Z,18.10
2022-12-18T18:58:47.467Z,18.48
2022-12-18T19:01:17.604Z,17.48
2022-12-18T19:03:45.803Z,20.60
2022-12-18T19:06:18.114Z,18.60
2022-12-18T19:08:47.519Z,15.90
2022-12-18T19:11:36.581Z,20.67
2022-12-18T19:14:06.499Z,20.05
2022-12-18T19:16:34.688Z,18.45
2022-12-18T19:19:02.761Z,21.95
2022-12-18T19:21:31.408Z,24.67
2022-12-18T19:24:01.726Z,56.08
2022-12-18T19:26:28.946Z,32.67
2022-12-18T19:29:02.331Z,21.92
2022-12-18T19:31:34.829Z,19.40
2022-12-18T19:34:02.568Z,18.40
2022-12-18T19:36:30.449Z,19.13
2022-12-18T19:39:00.349Z,17.55
2022-12-18T19:41:31.317Z,17.42
2022-12-18T19:44:00.133Z,19.10
2022-12-18T19:46:34.109Z,18.70
2022-12-18T19:49:01.131Z,18.63
2022-12-18T19:51:29.242Z,19.58
2022-12-18T19:53:59.294Z,17.95
2022-12-18T19:56:30.835Z,19.23
2022-12-18T19:58:57.791Z,19.33
2022-12-18T20:01:25.819Z,16.33
2022-12-18T20:03:54.465Z,18.17
2022-12-18T20:06:34.406Z,18.83
2022-12-18T20:09:06.214Z,19.85
2022-12-18T20:11:41.339Z,18.13
2022-12-18T20:14:08.648Z,21.25
2022-12-18T20:16:35.579Z,21.70
2022-12-18T20:19:02.595Z,17.23
2022-12-18T20:21:29.426Z,21.75
2022-12-18T20:23:56.262Z,20.77
2022-12-18T20:26:23.440Z,21.15
2022-12-18T20:28:50.239Z,22.48
2022-12-18T20:31:19.650Z,16.63
2022-12-18T20:33:48.625Z,17.20
2022-12-18T20:36:21.418Z,26.97
2022-12-18T20:38:52.950Z,18.08
2022-12-18T20:41:24.634Z,23.05
2022-12-18T20:43:52.558Z,20.80
2022-12-18T20:46:20.945Z,22.70
2022-12-18T20:48:48.298Z,20.70
2022-12-18T20:51:19.366Z,21.02
2022-12-18T20:53:48.572Z,18.85
2022-12-18T20:56:22.170Z,20.33
2022-12-18T20:59:33.717Z,16.85
2022-12-18T21:02:00.798Z,25.63
2022-12-18T21:10:27.828Z,20.20
2022-12-18T21:13:14.632Z,28.10
2022-12-18T21:15:53.529Z,19.40
2022-12-18T21:18:22.146Z,21.20
2022-12-18T21:20:51.167Z,23.52
2022-12-18T21:23:18.381Z,22.45
2022-12-18T21:25:56.156Z,21.38
2022-12-18T21:28:25.627Z,23.57
2022-12-18T21:39:08.773Z,21.88
2022-12-18T21:42:02.104Z,19.47
2022-12-18T21:44:29.768Z,19.75
2022-12-18T21:47:09.401Z,22.08
2022-12-18T21:49:43.866Z,20.08
2022-12-18T21:52:11.210Z,23.88
2022-12-18T21:54:38.078Z,21.03
2022-12-18T21:57:06.404Z,20.10
2022-12-18T21:59:35.655Z,20.98
2022-12-18T22:02:06.786Z,21.27
2022-12-18T22:04:36.893Z,21.00
2022-12-18T22:07:05.558Z,18.97
2022-12-18T22:09:43.593Z,20.23
2022-12-18T22:12:44.434Z,20.85
2022-12-18T22:15:26.663Z,20.80
2022-12-18T22:17:59.966Z,23.02
2022-12-18T22:20:27.106Z,22.80
2022-12-18T22:22:53.803Z,22.90
2022-12-18T22:25:20.377Z,23.77
2022-12-18T22:28:06.964Z,25.23
2022-12-18T22:30:35.177Z,21.40
2022-12-18T22:33:03.606Z,23.97
2022-12-18T22:35:30.269Z,23.80
2022-12-18T22:37:59.284Z,23.00
2022-12-18T22:40:26.800Z,20.70
2022-12-18T22:42:54.666Z,23.58
2022-12-18T22:45:22.320Z,20.80
2022-12-18T22:47:49.004Z,24.55
2022-12-18T22:50:15.629Z,21.55
2022-12-18T22:52:42.515Z,19.05
2022-12-18T22:55:09.394Z,23.95
2022-12-18T22:57:36.139Z,20.00
2022-12-18T23:00:05.642Z,20.10
2022-12-18T23:02:32.299Z,23.17
2022-12-18T23:04:58.989Z,20.33
2022-12-18T23:07:25.535Z,19.30
2022-12-18T23:09:52.463Z,18.67
2022-12-18T23:12:27.811Z,21.17
2022-12-18T23:14:54.669Z,19.77
2022-12-18T23:17:21.220Z,24.50
2022-12-18T23:19:49.321Z,24.70
2022-12-18T23:22:17.270Z,21.33
2022-12-18T23:24:44.215Z,21.70
2022-12-18T23:27:11.841Z,21.88
2022-12-18T23:29:39.423Z,23.10
2022-12-18T23:32:06.157Z,21.98
2022-12-18T23:34:32.861Z,20.83
2022-12-18T23:37:01.068Z,23.63
2022-12-18T23:39:30.163Z,22.50
2022-12-18T23:41:59.193Z,24.75
2022-12-18T23:44:26.274Z,25.80
2022-12-18T23:46:53.001Z,22.73
2022-12-18T23:49:19.769Z,25.23
2022-12-18T23:51:46.449Z,23.48
2022-12-18T23:54:12.999Z,25.50
2022-12-18T23:56:39.599Z,21.58
2022-12-18T23:59:06.295Z,21.67
